createdAt,value
2023-05-22T00:00:59.000Z,39.51
2023-05-22T00:01:59.055Z,39.57
2023-05-22T00:02:59.097Z,39.58
2023-05-22T00:03:59.049Z,39.60
2023-05-22T00:04:59.126Z,39.58
2023-05-22T00:05:59.164Z,39.57
2023-05-22T00:06:59.102Z,39.57
2023-05-22T00:07:59.256Z,39.56
2023-05-22T00:08:59.165Z,39.54
2023-05-22T00:09:59.218Z,39.57
2023-05-22T00:10:59.235Z,39.59
2023-05-22T00:11:59.262Z,39.58
2023-05-22T00:12:59.350Z,39.62
2023-05-22T00:13:59.607Z,39.53
2023-05-22T00:14:59.341Z,39.56
2023-05-22T00:15:59.381Z,39.61
2023-05-22T00:16:59.417Z,39.58
2023-05-22T00:17:59.635Z,39.57
2023-05-22T00:18:59.584Z,39.56
2023-05-22T00:19:59.593Z,39.58
2023-05-22T00:20:59.629Z,39.60
2023-05-22T00:21:59.669Z,39.61
2023-05-22T00:22:59.684Z,39.54
2023-05-22T00:23:59.674Z,39.58
2023-05-22T00:24:59.701Z,39.57
2023-05-22T00:25:59.777Z,39.60
2023-05-22T00:26:59.788Z,39.54
2023-05-22T00:27:59.859Z,39.51
2023-05-22T00:28:59.931Z,39.57
2023-05-22T00:29:59.943Z,39.56
2023-05-22T00:30:59.971Z,39.60
2023-05-22T00:32:00.007Z,39.61
2023-05-22T00:33:00.126Z,39.58
2023-05-22T00:34:00.172Z,39.58
2023-05-22T00:35:00.158Z,39.58
2023-05-22T00:36:00.199Z,39.60
2023-05-22T00:37:00.224Z,39.60
2023-05-22T00:38:00.254Z,39.60
2023-05-22T00:39:00.277Z,39.58
2023-05-22T00:40:00.305Z,39.60
2023-05-22T00:41:00.279Z,39.53
2023-05-22T00:42:00.270Z,39.54
2023-05-22T00:43:00.279Z,39.58
2023-05-22T00:44:00.286Z,39.60
2023-05-22T00:45:00.279Z,39.58
2023-05-22T00:46:00.281Z,39.58
2023-05-22T00:47:00.350Z,39.62
2023-05-22T00:48:00.323Z,39.63
2023-05-22T00:49:00.308Z,39.58
2023-05-22T00:50:00.288Z,39.62
2023-05-22T00:51:00.289Z,39.58
2023-05-22T00:52:00.313Z,39.58
2023-05-22T00:53:00.614Z,39.60
2023-05-22T00:54:00.386Z,39.58
2023-05-22T00:55:00.302Z,39.57
2023-05-22T00:56:00.284Z,39.56
2023-05-22T00:57:00.292Z,39.61
2023-05-22T00:58:00.296Z,39.61
2023-05-22T00:59:00.281Z,39.61
2023-05-22T01:00:00.353Z,39.59
2023-05-22T01:01:00.272Z,39.62
2023-05-22T01:02:00.308Z,39.57
2023-05-22T01:03:00.449Z,39.59
2023-05-22T01:04:00.432Z,39.57
2023-05-22T01:05:00.319Z,39.61
2023-05-22T01:06:00.359Z,39.63
2023-05-22T01:07:00.355Z,39.58
2023-05-22T01:08:00.396Z,39.61
2023-05-22T01:09:00.360Z,39.62
2023-05-22T01:10:00.422Z,39.58
2023-05-22T01:11:00.350Z,39.65
2023-05-22T01:12:00.361Z,39.61
2023-05-22T01:13:00.352Z,39.59
2023-05-22T01:14:00.382Z,39.62
2023-05-22T01:15:00.463Z,39.59
2023-05-22T01:16:00.417Z,39.57
2023-05-22T01:17:00.402Z,39.57
2023-05-22T01:18:00.478Z,39.56
2023-05-22T01:19:00.485Z,39.61
2023-05-22T01:20:00.472Z,39.57
2023-05-22T01:21:00.494Z,39.58
2023-05-22T01:22:00.595Z,39.57
2023-05-22T01:23:00.560Z,39.53
2023-05-22T01:24:00.604Z,39.57
2023-05-22T01:25:00.592Z,39.56
2023-05-22T01:26:00.609Z,39.52
2023-05-22T01:27:00.669Z,39.51
2023-05-22T01:28:00.788Z,39.56
2023-05-22T01:29:00.721Z,39.51
2023-05-22T01:30:00.796Z,39.49
2023-05-22T01:31:00.776Z,39.52
2023-05-22T01:32:00.806Z,39.49
2023-05-22T01:33:00.950Z,39.46
2023-05-22T01:34:00.938Z,39.48
2023-05-22T01:35:00.868Z,39.49
2023-05-22T01:36:00.999Z,39.48
2023-05-22T01:37:00.982Z,39.48
2023-05-22T01:38:01.057Z,39.46
2023-05-22T01:39:01.084Z,39.43
2023-05-22T01:40:01.134Z,39.48
2023-05-22T01:41:01.200Z,39.45
2023-05-22T01:42:01.227Z,39.43
2023-05-22T01:43:01.279Z,39.41
2023-05-22T01:44:01.323Z,39.38
2023-05-22T01:45:01.389Z,39.38
2023-05-22T01:46:01.527Z,39.33
2023-05-22T01:47:01.511Z,39.33
2023-05-22T01:48:01.608Z,39.37
2023-05-22T01:49:01.606Z,39.35
2023-05-22T01:50:01.682Z,39.31
2023-05-22T01:51:01.745Z,39.35
2023-05-22T01:52:01.876Z,39.29
2023-05-22T01:53:01.900Z,39.33
2023-05-22T01:54:01.929Z,39.29
2023-05-22T01:55:02.013Z,39.28
2023-05-22T01:56:02.073Z,39.31
2023-05-22T01:57:02.126Z,39.27
2023-05-22T01:58:02.185Z,39.24
2023-05-22T01:59:02.293Z,39.28
2023-05-22T02:00:02.661Z,39.25
2023-05-22T02:01:02.358Z,39.20
2023-05-22T02:02:02.418Z,39.22
2023-05-22T02:03:02.523Z,39.22
2023-05-22T02:04:02.547Z,39.22
2023-05-22T02:05:02.634Z,39.22
2023-05-22T02:06:02.654Z,39.18
2023-05-22T02:07:02.710Z,39.19
2023-05-22T02:08:02.801Z,39.16
2023-05-22T02:09:02.817Z,39.19
2023-05-22T02:10:02.886Z,39.18
2023-05-22T02:11:03.652Z,39.19
2023-05-22T02:12:02.953Z,39.19
2023-05-22T02:13:03.002Z,39.16
2023-05-22T02:14:03.080Z,39.18
2023-05-22T02:15:03.115Z,39.18
2023-05-22T02:16:03.249Z,39.16
2023-05-22T02:17:03.242Z,39.14
2023-05-22T02:18:03.393Z,39.20
2023-05-22T02:19:03.463Z,39.09
2023-05-22T02:20:03.406Z,39.13
2023-05-22T02:21:03.474Z,39.11
2023-05-22T02:22:03.527Z,39.13
2023-05-22T02:23:03.580Z,39.11
2023-05-22T02:24:03.683Z,39.13
2023-05-22T02:25:03.798Z,39.11
2023-05-22T02:26:03.755Z,39.10
2023-05-22T02:27:03.872Z,39.14
2023-05-22T02:28:03.943Z,39.13
2023-05-22T02:29:03.965Z,39.12
2023-05-22T02:30:03.998Z,39.11
2023-05-22T02:31:04.238Z,39.10
2023-05-22T02:32:04.116Z,39.08
2023-05-22T02:33:04.290Z,39.13
2023-05-22T02:34:04.211Z,39.09
2023-05-22T02:35:04.279Z,39.09
2023-05-22T02:36:04.332Z,39.16
2023-05-22T02:37:04.400Z,39.10
2023-05-22T02:38:04.522Z,39.09
2023-05-22T02:39:04.508Z,39.13
2023-05-22T02:40:04.592Z,39.13
2023-05-22T02:41:04.645Z,39.09
2023-05-22T02:42:04.702Z,39.09
2023-05-22T02:43:04.769Z,39.11
2023-05-22T02:44:04.833Z,39.11
2023-05-22T02:45:04.879Z,39.11
2023-05-22T02:46:04.991Z,39.10
2023-05-22T02:47:05.025Z,39.13
2023-05-22T02:48:05.132Z,39.11
2023-05-22T02:49:05.141Z,39.14
2023-05-22T02:50:05.208Z,39.14
2023-05-22T02:51:05.264Z,39.13
2023-05-22T02:52:05.399Z,39.13
2023-05-22T02:53:05.379Z,39.09
2023-05-22T02:54:05.458Z,39.10
2023-05-22T02:55:05.667Z,39.09
2023-05-22T02:56:05.582Z,39.08
2023-05-22T02:57:05.644Z,39.10
2023-05-22T02:58:05.699Z,39.09
2023-05-22T02:59:06.657Z,39.11
2023-05-22T03:00:05.863Z,39.08
2023-05-22T03:01:05.867Z,39.14
2023-05-22T03:02:06.050Z,39.11
2023-05-22T03:03:05.999Z,39.09
2023-05-22T03:04:06.086Z,39.11
2023-05-22T03:05:06.092Z,39.08
2023-05-22T03:06:06.157Z,39.09
2023-05-22T03:07:06.217Z,39.08
2023-05-22T03:08:06.284Z,39.09
2023-05-22T03:09:06.371Z,39.06
2023-05-22T03:10:06.393Z,39.06
2023-05-22T03:11:07.168Z,39.12
2023-05-22T03:12:06.550Z,39.11
2023-05-22T03:13:06.603Z,39.14
2023-05-22T03:14:06.671Z,39.12
2023-05-22T03:15:06.735Z,39.13
2023-05-22T03:16:06.840Z,39.13
2023-05-22T03:17:06.819Z,39.13
2023-05-22T03:18:06.951Z,39.11
2023-05-22T03:19:06.993Z,39.12
2023-05-22T03:20:07.032Z,39.12
2023-05-22T03:21:07.085Z,39.09
2023-05-22T03:22:07.157Z,39.11
2023-05-22T03:23:07.219Z,39.11
2023-05-22T03:24:07.353Z,39.13
2023-05-22T03:25:07.348Z,39.13
2023-05-22T03:26:07.412Z,39.09
2023-05-22T03:27:07.471Z,39.14
2023-05-22T03:28:07.542Z,39.14
2023-05-22T03:29:07.716Z,39.09
2023-05-22T03:30:07.658Z,39.14
2023-05-22T03:31:07.699Z,39.13
2023-05-22T03:32:07.830Z,39.16
2023-05-22T03:33:07.827Z,39.17
2023-05-22T03:34:08.052Z,39.13
2023-05-22T03:35:07.933Z,39.14
2023-05-22T03:36:07.986Z,39.10
2023-05-22T03:37:08.052Z,39.13
2023-05-22T03:38:08.146Z,39.13
2023-05-22T03:39:08.168Z,39.12
2023-05-22T03:40:08.285Z,39.08
2023-05-22T03:41:08.287Z,39.13
2023-05-22T03:42:08.380Z,39.13
2023-05-22T03:43:08.397Z,39.13
2023-05-22T03:44:08.456Z,39.09
2023-05-22T03:45:08.516Z,39.11
2023-05-22T03:46:08.660Z,39.11
2023-05-22T03:47:08.612Z,39.11
2023-05-22T03:48:08.787Z,39.12
2023-05-22T03:49:08.694Z,39.10
2023-05-22T03:50:08.751Z,39.13
2023-05-22T03:51:08.816Z,39.11
2023-05-22T03:52:08.872Z,39.11
2023-05-22T03:53:08.950Z,39.09
2023-05-22T03:54:09.002Z,39.06
2023-05-22T03:55:09.085Z,39.11
2023-05-22T03:56:09.105Z,39.16
2023-05-22T03:57:09.164Z,39.08
2023-05-22T03:58:09.240Z,39.13
2023-05-22T03:59:09.685Z,39.13
2023-05-22T04:00:09.339Z,39.13
2023-05-22T04:01:09.398Z,39.12
2023-05-22T04:02:09.480Z,39.12
2023-05-22T04:03:09.612Z,39.11
2023-05-22T04:04:09.574Z,39.16
2023-05-22T04:05:09.676Z,39.09
2023-05-22T04:06:09.692Z,39.10
2023-05-22T04:07:09.742Z,39.11
2023-05-22T04:08:09.794Z,39.09
2023-05-22T04:09:09.851Z,39.08
2023-05-22T04:10:09.895Z,39.09
2023-05-22T04:11:09.956Z,39.08
2023-05-22T04:12:10.010Z,39.09
2023-05-22T04:13:10.058Z,39.08
2023-05-22T04:14:10.112Z,39.05
2023-05-22T04:15:10.184Z,39.08
2023-05-22T04:16:10.317Z,39.11
2023-05-22T04:17:10.318Z,39.06
2023-05-22T04:18:10.375Z,39.08
2023-05-22T04:19:10.476Z,39.09
2023-05-22T04:20:10.467Z,39.05
2023-05-22T04:21:10.518Z,39.08
2023-05-22T04:22:10.575Z,39.08
2023-05-22T04:23:10.636Z,39.09
2023-05-22T04:24:10.806Z,39.03
2023-05-22T04:25:10.791Z,39.08
2023-05-22T04:26:10.810Z,39.05
2023-05-22T04:27:10.872Z,39.08
2023-05-22T04:28:10.933Z,39.09
2023-05-22T04:29:11.064Z,39.00
2023-05-22T04:30:11.082Z,39.04
2023-05-22T04:31:11.163Z,39.00
2023-05-22T04:32:11.166Z,39.04
2023-05-22T04:33:11.367Z,39.03
2023-05-22T04:34:11.273Z,39.03
2023-05-22T04:35:11.335Z,39.05
2023-05-22T04:36:12.512Z,39.00
2023-05-22T04:37:11.456Z,39.04
2023-05-22T04:38:11.524Z,39.03
2023-05-22T04:39:11.575Z,39.00
2023-05-22T04:40:11.677Z,38.98
2023-05-22T04:41:11.685Z,39.02
2023-05-22T04:42:11.743Z,39.00
2023-05-22T04:43:11.804Z,39.02
2023-05-22T04:44:11.869Z,39.04
2023-05-22T04:45:11.925Z,39.00
2023-05-22T04:46:12.060Z,39.04
2023-05-22T04:47:12.098Z,38.98
2023-05-22T04:48:12.108Z,39.00
2023-05-22T04:49:12.214Z,38.99
2023-05-22T04:50:12.233Z,38.94
2023-05-22T04:51:12.293Z,39.04
2023-05-22T04:52:12.354Z,38.98
2023-05-22T04:53:12.417Z,38.96
2023-05-22T04:54:12.561Z,38.98
2023-05-22T04:55:12.608Z,38.99
2023-05-22T04:56:14.673Z,39.00
2023-05-22T04:57:12.603Z,38.94
2023-05-22T04:58:12.585Z,38.95
2023-05-22T04:59:12.576Z,38.99
2023-05-22T05:00:12.569Z,38.98
2023-05-22T05:01:12.611Z,38.94
2023-05-22T05:02:12.552Z,38.95
2023-05-22T05:03:12.728Z,38.92
2023-05-22T05:04:12.609Z,38.94
2023-05-22T05:05:12.531Z,38.95
2023-05-22T05:06:12.514Z,38.97
2023-05-22T05:07:12.507Z,38.88
2023-05-22T05:08:12.500Z,38.94
2023-05-22T05:09:12.497Z,38.93
2023-05-22T05:10:12.602Z,38.90
2023-05-22T05:11:12.476Z,38.95
2023-05-22T05:12:12.470Z,38.88
2023-05-22T05:13:12.471Z,38.94
2023-05-22T05:14:12.468Z,38.89
2023-05-22T05:15:12.450Z,38.94
2023-05-22T05:16:12.583Z,38.93
2023-05-22T05:17:12.432Z,38.87
2023-05-22T05:18:12.671Z,38.90
2023-05-22T05:19:12.660Z,38.88
2023-05-22T05:20:12.615Z,38.89
2023-05-22T05:21:12.670Z,38.89
2023-05-22T05:22:12.730Z,38.92
2023-05-22T05:23:12.791Z,38.88
2023-05-22T05:24:12.845Z,38.86
2023-05-22T05:25:12.966Z,38.89
2023-05-22T05:26:12.951Z,38.90
2023-05-22T05:27:13.008Z,38.89
2023-05-22T05:28:13.105Z,38.86
2023-05-22T05:29:13.133Z,38.92
2023-05-22T05:30:13.253Z,38.89
2023-05-22T05:31:13.294Z,38.87
2023-05-22T05:32:13.359Z,38.89
2023-05-22T05:33:13.477Z,39.12
2023-05-22T05:34:13.413Z,39.10
2023-05-22T05:35:13.472Z,39.06
2023-05-22T05:36:13.530Z,39.01
2023-05-22T05:37:13.589Z,39.02
2023-05-22T05:38:13.713Z,38.97
2023-05-22T05:39:13.775Z,39.00
2023-05-22T05:40:13.771Z,38.95
2023-05-22T05:41:13.826Z,38.95
2023-05-22T05:42:13.870Z,38.93
2023-05-22T05:43:13.933Z,38.93
2023-05-22T05:44:13.998Z,38.92
2023-05-22T05:45:14.057Z,38.91
2023-05-22T05:46:14.149Z,38.91
2023-05-22T05:47:14.165Z,38.85
2023-05-22T05:48:14.224Z,38.83
2023-05-22T05:49:14.266Z,38.79
2023-05-22T05:50:14.333Z,38.83
2023-05-22T05:51:14.390Z,38.84
2023-05-22T05:52:14.470Z,38.79
2023-05-22T05:53:14.497Z,38.80
2023-05-22T05:54:14.586Z,38.82
2023-05-22T05:55:14.623Z,38.80
2023-05-22T05:56:14.699Z,38.82
2023-05-22T05:57:15.625Z,38.79
2023-05-22T05:58:15.223Z,38.80
2023-05-22T05:59:14.631Z,38.80
2023-05-22T06:00:14.598Z,38.75
2023-05-22T06:01:14.578Z,38.79
2023-05-22T06:02:14.661Z,38.78
2023-05-22T06:03:14.738Z,38.75
2023-05-22T06:04:15.185Z,38.70
2023-05-22T06:05:14.681Z,38.73
2023-05-22T06:06:14.728Z,38.70
2023-05-22T06:07:14.768Z,38.73
2023-05-22T06:08:14.834Z,38.70
2023-05-22T06:09:14.892Z,38.71
2023-05-22T06:10:15.030Z,38.67
2023-05-22T06:11:15.070Z,38.71
2023-05-22T06:12:15.983Z,38.71
2023-05-22T06:13:14.973Z,38.71
2023-05-22T06:14:14.976Z,38.70
2023-05-22T06:15:14.953Z,38.73
2023-05-22T06:16:14.965Z,38.74
2023-05-22T06:17:14.933Z,38.71
2023-05-22T06:18:14.928Z,38.74
2023-05-22T06:19:15.016Z,38.68
2023-05-22T06:20:15.040Z,38.67
2023-05-22T06:21:15.657Z,38.67
2023-05-22T06:22:15.147Z,38.62
2023-05-22T06:23:15.212Z,38.68
2023-05-22T06:24:15.260Z,38.66
2023-05-22T06:25:15.332Z,38.61
2023-05-22T06:26:15.421Z,38.61
2023-05-22T06:27:15.457Z,38.62
2023-05-22T06:28:16.231Z,38.61
2023-05-22T06:29:15.561Z,38.60
2023-05-22T06:30:22.405Z,38.61
2023-05-22T06:31:16.621Z,38.67
2023-05-22T06:32:15.644Z,38.61
2023-05-22T06:33:15.620Z,38.66
2023-05-22T06:34:15.653Z,38.68
2023-05-22T06:35:15.573Z,38.66
2023-05-22T06:36:15.573Z,38.63
2023-05-22T06:37:15.569Z,38.67
2023-05-22T06:38:15.625Z,38.66
2023-05-22T06:39:15.678Z,38.63
2023-05-22T06:40:15.746Z,38.65
2023-05-22T06:41:15.810Z,38.59
2023-05-22T06:42:15.876Z,38.60
2023-05-22T06:43:15.935Z,38.64
2023-05-22T06:44:16.094Z,38.57
2023-05-22T06:45:16.055Z,38.66
2023-05-22T06:46:16.180Z,38.64
2023-05-22T06:47:16.197Z,38.62
2023-05-22T06:48:16.248Z,38.62
2023-05-22T06:49:16.291Z,38.58
2023-05-22T06:50:16.341Z,38.57
2023-05-22T06:51:16.478Z,38.60
2023-05-22T06:52:16.466Z,38.60
2023-05-22T06:53:16.521Z,38.60
2023-05-22T06:54:16.586Z,38.57
2023-05-22T06:55:16.699Z,38.59
2023-05-22T06:56:17.244Z,38.55
2023-05-22T06:57:16.747Z,38.55
2023-05-22T06:58:16.800Z,38.57
2023-05-22T06:59:16.845Z,38.55
2023-05-22T07:00:18.271Z,38.57
2023-05-22T07:01:17.071Z,38.56
2023-05-22T07:02:17.007Z,38.52
2023-05-22T07:03:17.079Z,38.48
2023-05-22T07:04:17.131Z,38.51
2023-05-22T07:05:17.357Z,38.48
2023-05-22T07:06:17.376Z,38.52
2023-05-22T07:07:17.295Z,38.51
2023-05-22T07:08:17.365Z,38.53
2023-05-22T07:09:17.491Z,38.48
2023-05-22T07:10:17.466Z,38.51
2023-05-22T07:11:17.497Z,38.48
2023-05-22T07:12:17.548Z,38.51
2023-05-22T07:13:17.608Z,38.48
2023-05-22T07:14:17.678Z,38.49
2023-05-22T07:15:17.715Z,38.49
2023-05-22T07:16:18.192Z,38.51
2023-05-22T07:17:17.819Z,38.48
2023-05-22T07:18:17.873Z,38.48
2023-05-22T07:19:17.977Z,38.53
2023-05-22T07:20:17.990Z,38.60
2023-05-22T07:21:17.999Z,37.66
2023-05-22T07:22:18.047Z,38.01
2023-05-22T07:23:18.078Z,39.52
2023-05-22T07:24:18.672Z,39.24
2023-05-22T07:25:18.188Z,39.23
2023-05-22T07:26:19.177Z,39.70
2023-05-22T07:27:18.329Z,39.36
2023-05-22T07:28:18.341Z,39.67
2023-05-22T07:29:18.381Z,39.76
2023-05-22T07:30:18.421Z,39.95
2023-05-22T07:31:18.504Z,40.18
2023-05-22T07:32:18.586Z,40.15
2023-05-22T07:33:18.581Z,40.33
2023-05-22T07:34:18.545Z,40.41
2023-05-22T07:35:18.563Z,40.39
2023-05-22T07:36:19.251Z,40.46
2023-05-22T07:37:18.603Z,40.54
2023-05-22T07:38:18.638Z,40.59
2023-05-22T07:39:18.622Z,40.63
2023-05-22T07:40:18.654Z,40.66
2023-05-22T07:41:18.659Z,40.68
2023-05-22T07:42:18.668Z,40.80
2023-05-22T07:43:18.657Z,40.79
2023-05-22T07:44:18.657Z,40.77
2023-05-22T07:45:18.652Z,40.86
2023-05-22T07:46:18.702Z,40.87
2023-05-22T07:47:18.652Z,40.89
2023-05-22T07:48:18.727Z,40.85
2023-05-22T07:49:18.644Z,40.92
2023-05-22T07:50:18.631Z,40.99
2023-05-22T07:51:18.618Z,40.98
2023-05-22T07:52:18.612Z,40.90
2023-05-22T07:53:18.605Z,40.94
2023-05-22T07:54:18.780Z,40.96
2023-05-22T07:55:18.572Z,40.99
2023-05-22T07:56:18.541Z,40.96
2023-05-22T07:57:18.531Z,40.99
2023-05-22T07:58:18.507Z,40.97
2023-05-22T07:59:18.486Z,40.97
2023-05-22T08:00:18.482Z,40.95
2023-05-22T08:01:18.482Z,40.98
2023-05-22T08:02:18.503Z,40.91
2023-05-22T08:03:19.119Z,40.99
2023-05-22T08:04:18.710Z,40.96
2023-05-22T08:05:18.551Z,40.96
2023-05-22T08:06:18.525Z,40.93
2023-05-22T08:07:18.552Z,40.95
2023-05-22T08:08:18.554Z,40.94
2023-05-22T08:09:18.589Z,41.01
2023-05-22T08:10:18.633Z,41.19
2023-05-22T08:11:18.685Z,41.28
2023-05-22T08:12:18.726Z,41.51
2023-05-22T08:13:18.776Z,41.49
2023-05-22T08:14:18.818Z,43.97
2023-05-22T08:15:18.867Z,44.24
2023-05-22T08:16:18.877Z,43.64
2023-05-22T08:17:19.112Z,44.50
2023-05-22T08:18:18.964Z,44.67
2023-05-22T08:19:19.111Z,42.48
2023-05-22T08:20:19.093Z,41.53
2023-05-22T08:21:19.098Z,41.55
2023-05-22T08:22:19.184Z,41.27
2023-05-22T08:23:19.156Z,40.94
2023-05-22T08:24:19.191Z,41.07
2023-05-22T08:25:19.227Z,41.18
2023-05-22T08:26:19.264Z,41.31
2023-05-22T08:27:19.352Z,41.58
2023-05-22T08:28:19.332Z,41.58
2023-05-22T08:29:19.348Z,41.70
2023-05-22T08:30:19.394Z,41.87
2023-05-22T08:31:19.456Z,42.02
2023-05-22T08:32:19.447Z,42.63
2023-05-22T08:33:19.454Z,42.63
2023-05-22T08:34:19.464Z,42.93
2023-05-22T08:35:19.499Z,42.89
2023-05-22T08:36:19.508Z,42.98
2023-05-22T08:37:19.517Z,43.30
2023-05-22T08:38:19.526Z,43.59
2023-05-22T08:39:19.556Z,43.30
2023-05-22T08:40:19.562Z,43.36
2023-05-22T08:41:19.573Z,43.37
2023-05-22T08:42:19.639Z,43.40
2023-05-22T08:43:19.601Z,43.58
2023-05-22T08:44:19.605Z,43.65
2023-05-22T08:45:19.610Z,43.73
2023-05-22T08:46:19.655Z,43.89
2023-05-22T08:47:19.711Z,44.02
2023-05-22T08:48:19.701Z,44.06
2023-05-22T08:49:20.384Z,44.12
2023-05-22T08:50:19.672Z,44.24
2023-05-22T08:51:19.597Z,44.53
2023-05-22T08:52:19.591Z,44.71
2023-05-22T08:53:19.592Z,44.73
2023-05-22T08:54:19.581Z,44.61
2023-05-22T08:55:19.661Z,44.76
2023-05-22T08:56:19.559Z,44.82
2023-05-22T08:57:19.547Z,44.90
2023-05-22T08:58:19.540Z,45.00
2023-05-22T08:59:20.281Z,45.11
2023-05-22T09:00:19.518Z,45.24
2023-05-22T09:01:19.560Z,45.36
2023-05-22T09:02:19.487Z,45.43
2023-05-22T09:03:19.533Z,45.60
2023-05-22T09:04:19.436Z,45.67
2023-05-22T09:05:19.406Z,45.71
2023-05-22T09:06:19.397Z,45.85
2023-05-22T09:07:19.360Z,45.96
2023-05-22T09:08:20.990Z,46.03
2023-05-22T09:09:19.305Z,46.20
2023-05-22T09:10:19.286Z,46.29
2023-05-22T09:11:19.271Z,46.40
2023-05-22T09:12:19.204Z,46.35
2023-05-22T09:13:19.193Z,46.57
2023-05-22T09:14:19.158Z,46.65
2023-05-22T09:15:19.120Z,47.30
2023-05-22T09:16:19.121Z,47.45
2023-05-22T09:17:19.095Z,46.65
2023-05-22T09:18:19.040Z,46.73
2023-05-22T09:19:19.105Z,46.57
2023-05-22T09:20:18.989Z,46.52
2023-05-22T09:21:29.437Z,46.54
2023-05-22T09:23:19.731Z,46.32
2023-05-22T09:24:18.907Z,46.40
2023-05-22T09:25:18.830Z,46.52
2023-05-22T09:26:19.298Z,46.46
2023-05-22T09:27:18.757Z,46.47
2023-05-22T09:28:18.730Z,46.52
2023-05-22T09:29:18.699Z,46.56
2023-05-22T09:30:18.692Z,46.53
2023-05-22T09:31:18.679Z,46.60
2023-05-22T09:32:18.612Z,46.59
2023-05-22T09:33:18.586Z,46.57
2023-05-22T09:34:18.652Z,46.68
2023-05-22T09:35:18.536Z,46.70
2023-05-22T09:36:18.511Z,46.73
2023-05-22T09:37:19.383Z,46.75
2023-05-22T09:38:19.313Z,46.80
2023-05-22T09:39:18.715Z,46.77
2023-05-22T09:40:18.844Z,46.73
2023-05-22T09:41:18.666Z,46.79
2023-05-22T09:42:18.704Z,46.79
2023-05-22T09:43:18.737Z,46.81
2023-05-22T09:44:18.767Z,46.88
2023-05-22T09:45:18.810Z,46.80
2023-05-22T09:46:18.870Z,46.82
2023-05-22T09:47:18.975Z,46.90
2023-05-22T09:48:18.933Z,46.79
2023-05-22T09:49:18.968Z,46.88
2023-05-22T09:50:19.007Z,46.91
2023-05-22T09:51:19.038Z,46.77
2023-05-22T09:52:19.088Z,46.89
2023-05-22T09:53:19.159Z,46.91
2023-05-22T09:54:19.157Z,46.88
2023-05-22T09:55:19.182Z,46.87
2023-05-22T09:56:27.221Z,46.83
2023-05-22T09:57:20.195Z,46.82
2023-05-22T09:58:19.155Z,46.84
2023-05-22T09:59:19.134Z,46.80
2023-05-22T10:00:19.119Z,46.84
2023-05-22T10:01:19.103Z,46.76
2023-05-22T10:02:19.059Z,46.80
2023-05-22T10:03:19.056Z,46.74
2023-05-22T10:04:19.059Z,46.78
2023-05-22T10:05:18.957Z,46.71
2023-05-22T10:06:18.944Z,46.73
2023-05-22T10:07:18.954Z,46.68
2023-05-22T10:08:18.996Z,46.65
2023-05-22T10:09:19.650Z,46.67
2023-05-22T10:10:19.061Z,46.70
2023-05-22T10:11:19.096Z,46.72
2023-05-22T10:12:19.223Z,46.70
2023-05-22T10:13:19.176Z,46.63
2023-05-22T10:14:19.210Z,46.63
2023-05-22T10:15:19.248Z,46.69
2023-05-22T10:16:19.329Z,46.64
2023-05-22T10:17:19.317Z,46.56
2023-05-22T10:18:19.369Z,46.65
2023-05-22T10:19:19.440Z,46.63
2023-05-22T10:20:19.444Z,46.66
2023-05-22T10:21:19.478Z,46.59
2023-05-22T10:22:19.554Z,46.65
2023-05-22T10:23:19.625Z,46.64
2023-05-22T10:24:19.597Z,46.51
2023-05-22T10:25:19.650Z,46.58
2023-05-22T10:26:19.689Z,46.63
2023-05-22T10:27:19.748Z,46.52
2023-05-22T10:28:19.852Z,46.57
2023-05-22T10:29:20.748Z,46.52
2023-05-22T10:30:19.868Z,46.53
2023-05-22T10:31:19.996Z,46.58
2023-05-22T10:32:19.935Z,46.54
2023-05-22T10:33:20.097Z,46.48
2023-05-22T10:34:20.042Z,46.47
2023-05-22T10:35:20.074Z,46.51
2023-05-22T10:36:20.202Z,46.48
2023-05-22T10:37:22.144Z,46.42
2023-05-22T10:38:20.195Z,46.40
2023-05-22T10:39:20.241Z,46.38
2023-05-22T10:40:20.297Z,46.37
2023-05-22T10:41:20.413Z,46.37
2023-05-22T10:42:20.429Z,46.31
2023-05-22T10:43:20.442Z,46.29
2023-05-22T10:44:20.569Z,46.32
2023-05-22T10:45:20.522Z,46.32
2023-05-22T10:46:20.699Z,46.26
2023-05-22T10:47:20.676Z,46.27
2023-05-22T10:48:20.670Z,46.18
2023-05-22T10:49:21.340Z,46.29
2023-05-22T10:50:20.765Z,46.17
2023-05-22T10:51:20.801Z,46.17
2023-05-22T10:52:20.850Z,46.15
2023-05-22T10:53:20.912Z,46.18
2023-05-22T10:54:20.945Z,46.15
2023-05-22T10:55:21.013Z,46.08
2023-05-22T10:56:23.020Z,46.11
2023-05-22T10:57:21.092Z,46.12
2023-05-22T10:58:20.992Z,46.08
2023-05-22T10:59:20.975Z,46.06
2023-05-22T11:00:21.042Z,46.03
2023-05-22T11:01:20.987Z,46.04
2023-05-22T11:02:20.943Z,46.05
2023-05-22T11:03:20.923Z,45.99
2023-05-22T11:04:20.932Z,45.96
2023-05-22T11:05:20.860Z,45.91
2023-05-22T11:06:20.839Z,45.95
2023-05-22T11:07:20.812Z,45.89
2023-05-22T11:08:20.790Z,45.86
2023-05-22T11:09:20.805Z,45.89
2023-05-22T11:10:20.765Z,45.90
2023-05-22T11:11:20.760Z,45.88
2023-05-22T11:12:20.838Z,45.89
2023-05-22T11:13:20.735Z,45.82
2023-05-22T11:14:20.732Z,45.82
2023-05-22T11:15:20.706Z,45.82
2023-05-22T11:16:20.804Z,45.86
2023-05-22T11:17:20.673Z,45.79
2023-05-22T11:18:20.716Z,45.76
2023-05-22T11:19:23.841Z,45.73
2023-05-22T11:20:20.722Z,45.79
2023-05-22T11:21:20.691Z,45.73
2023-05-22T11:22:20.676Z,45.68
2023-05-22T11:23:20.656Z,45.70
2023-05-22T11:24:20.638Z,45.66
2023-05-22T11:25:20.613Z,45.65
2023-05-22T11:26:20.601Z,45.67
2023-05-22T11:27:20.585Z,45.59
2023-05-22T11:28:20.582Z,45.59
2023-05-22T11:29:20.546Z,45.59
2023-05-22T11:30:20.534Z,45.52
2023-05-22T11:31:20.589Z,45.53
2023-05-22T11:32:20.596Z,45.54
2023-05-22T11:33:20.524Z,45.55
2023-05-22T11:34:20.467Z,45.48
2023-05-22T11:35:20.446Z,45.48
2023-05-22T11:36:20.461Z,45.43
2023-05-22T11:37:20.468Z,45.43
2023-05-22T11:38:20.421Z,45.39
2023-05-22T11:39:20.374Z,45.36
2023-05-22T11:40:20.425Z,45.30
2023-05-22T11:41:20.306Z,45.33
2023-05-22T11:42:20.293Z,45.34
2023-05-22T11:43:20.274Z,45.31
2023-05-22T11:44:20.255Z,45.28
2023-05-22T11:45:20.223Z,45.18
2023-05-22T11:46:20.298Z,45.14
2023-05-22T11:47:20.863Z,45.22
2023-05-22T11:48:20.252Z,45.16
2023-05-22T11:49:20.198Z,45.14
2023-05-22T11:50:29.866Z,45.17
2023-05-22T11:51:21.221Z,45.05
2023-05-22T11:52:20.199Z,45.03
2023-05-22T11:53:20.181Z,44.99
2023-05-22T11:54:20.170Z,44.98
2023-05-22T11:55:20.150Z,44.97
2023-05-22T11:56:20.856Z,44.97
2023-05-22T11:57:20.100Z,44.89
2023-05-22T11:58:20.090Z,44.80
2023-05-22T11:59:20.053Z,44.81
2023-05-22T12:00:20.086Z,44.73
2023-05-22T12:01:20.040Z,44.77
2023-05-22T12:02:20.076Z,44.80
2023-05-22T12:03:20.165Z,44.72
2023-05-22T12:04:20.314Z,44.70
2023-05-22T12:05:20.210Z,44.57
2023-05-22T12:06:20.246Z,44.64
2023-05-22T12:07:20.318Z,44.57
2023-05-22T12:08:20.327Z,44.67
2023-05-22T12:09:20.306Z,44.57
2023-05-22T12:10:20.411Z,44.50
2023-05-22T12:11:20.369Z,44.50
2023-05-22T12:12:22.349Z,44.51
2023-05-22T12:13:20.422Z,44.48
2023-05-22T12:14:20.436Z,44.44
2023-05-22T12:15:20.456Z,44.36
2023-05-22T12:16:20.575Z,44.37
2023-05-22T12:17:20.525Z,44.34
2023-05-22T12:18:20.594Z,44.31
2023-05-22T12:19:20.591Z,44.30
2023-05-22T12:20:20.674Z,44.31
2023-05-22T12:21:20.619Z,44.26
2023-05-22T12:22:22.572Z,44.24
2023-05-22T12:23:20.903Z,44.29
2023-05-22T12:24:20.886Z,44.21
2023-05-22T12:25:20.911Z,44.18
2023-05-22T12:26:20.966Z,44.18
2023-05-22T12:27:20.930Z,44.15
2023-05-22T12:28:20.949Z,44.15
2023-05-22T12:29:20.958Z,44.00
2023-05-22T12:30:21.069Z,44.08
2023-05-22T12:31:20.987Z,44.01
2023-05-22T12:32:21.091Z,43.95
2023-05-22T12:33:21.109Z,43.94
2023-05-22T12:34:21.052Z,43.96
2023-05-22T12:35:21.072Z,43.95
2023-05-22T12:36:21.157Z,43.94
2023-05-22T12:37:21.092Z,43.84
2023-05-22T12:38:21.122Z,43.81
2023-05-22T12:39:21.112Z,43.83
2023-05-22T12:40:21.116Z,43.78
2023-05-22T12:41:21.117Z,43.78
2023-05-22T12:42:21.115Z,43.75
2023-05-22T12:43:21.176Z,43.75
2023-05-22T12:44:21.136Z,43.69
2023-05-22T12:45:21.221Z,43.66
2023-05-22T12:46:21.187Z,43.65
2023-05-22T12:47:21.208Z,43.62
2023-05-22T12:48:21.182Z,43.59
2023-05-22T12:49:21.166Z,43.56
2023-05-22T12:50:21.176Z,43.58
2023-05-22T12:51:21.178Z,43.49
2023-05-22T12:52:21.250Z,43.49
2023-05-22T12:53:21.172Z,43.47
2023-05-22T12:54:21.172Z,43.50